Aérodrome :
LOGIN :

S'inscrire | Disclaimer

   EN    FR    IT 

 










Légende :    VFR   VFR Marginal   IFR   IFR Intensif   IFR Très Intensif
Visi : 
Plafond : 
>= 8 km
>= 3000ft
5 à 8 km
1000 à 3000 ft
1500m à 5 km
500 à 1000 ft
800 à 1500m
200 à 500 ft
< 800m
< 200 ft
Symboles :   Orages  Brouillard  Fortes neiges  Fortes précipitations  Vent > 20 kt
SIGMETs :   Divers  Orages  Givrage  Turbulence  Onde Orograph.  Cendres Volcan.







- Altitude de l'aérodrome : 278 ft
- Code IATA : RJK


LDRI - Rijeka

DERNIER METAR :
  • 190800Z 13004KT 0100 FG NSC 02/02 Q1023

METARs EXPIRÉS :
  • 190730Z 12004KT 0100 FG NSC 02/02 Q1023
  • 190700Z 11004KT 0100 FG NSC 02/01 Q1023
  • 190630Z 12003KT 0100 FG NSC 01/01 Q1022
  • 190600Z 26001KT 0100 FG NSC 01/01 Q1022
  • 190530Z 00000KT 0100 FG NSC 01/00 Q1022

TAF TAF LDRI
Valide du 19 à 06h jusqu'au 20 à 06h UTC


190525Z 1906/2006 VRB02KT 0200 FG NSC TX14/1913Z TN01/1906Z
BECMG 1908/1910 3000 BR BKN010
TEMPO 1910/1918 6000 NSW SCT010
PROB30
TEMPO 1922/2006 0300 FG
Pas de NOTAMs connus pour ce terrain.



MET'MAP, la Météo Aéronautique d'un coup d'oeil ! - Copyright ORBIFLY Décembre 2007 - Disclaimer

ORBIFLY MET'MAP TEAM :

Programmation & Développement : Alexandra Zaïnal
Conception & Développement : Baudouin d'Aumeries
Co-Programmation & Développement : Marc-Olivier Méhu
Soutien technique & logistique : Manuel Goepfert

Contact : metmap@orbifly.com




SOURCES & CREDITS :

   NOAA